Mountain Home, AR (72653)

9:08 PM CST on March 04, 2015 (GMT -0600)
Amateur Radio W7NMD | Change Station
CLOSE
Current Station
Personal Weather Station
Location: Mountain Home, AR
Elevation: 940 ft
Nearby Weather Stations
Active Advisory: Winter Storm Warning Active Notice: Local Storm Report

Elev 940 ft 36.35 °N, 92.40 °W | Updated 44 seconds ago

Snow
Snow
19.7 °F
Feels Like 20 °F
N
0.0
Wind Variable Wind from NW
Gusts 3.0 mph

Today
High -- | Low -- °F
--% Chance of Precip.
Yesterday
High -- | Low -- °F
Precip. -- in
6:36 AM 6:06 PM
Full, 100% visible
Pressure 30.29 in
Visibility 3.0 miles
Clouds Overcast 3000 ft
Windchill 20 °F
Dew Point 18 °F
Humidity 93%
Rainfall 0.17 in
Snow Depth Not available.
UV 0 out of 12
Pollen .70 out of 12
Air Quality Not available.
Flu Activity Not available.
SPECI KBPK 050155Z AUTO 36005KT 3SM -SN BR OVC030 M07/M09 A3029 RMK AO2 T10671089 PNO $

More Conditions Fewer Conditions

Pressure 30.29 in
Visibility 3.0 miles
Clouds Overcast 3000 ft
Windchill 20 °F
Dew Point 18 °F
Humidity 93%
Rainfall 0.17 in
Snow Depth Not available.
UV 0 out of 12
Pollen .70 out of 12
Air Quality Not available.
Flu Activity Not available.
SPECI KBPK 050155Z AUTO 36005KT 3SM -SN BR OVC030 M07/M09 A3029 RMK AO2 T10671089 PNO $

More Conditions Fewer Conditions

10-Day Weather Forecast

Almanac

Astronomy

Mar. 04, 2015 Rise Set
Actual Time
Civil Twilight
Nautical Twilight
Astronomical Twilight
Moon
Length of Visible Light
Length of Day
Tomorrow will be .
, % of the Moon is Illuminated

Today's Extremes

State Highs State Lows

Community

WunderPhotos

Upload Photos

1,802,641 photos uploaded!

WunderBlogs® & News

Nearby

Air Quality

  Air Quality AQ Index Pollutant
Not available.

Snow Depth

Station Depth Elevation

Earthquake Activity

City Distance Mag. Time & Date
Minimum magnitude displayed is 2.5.

Coastal Water Temperatures

Place Temperature

Nearby Weather Stations

Winter Storm Warning
Statement as of 10:34 AM CST on March 04, 2015

... Winter Storm Warning remains in effect until 6 am CST
Thursday...

A Winter Storm Warning remains in effect until 6 am CST Thursday.

* Event... freezing rain... sleet... and snow... will spread across
northern Arkansas.

* Accumulations... snow and sleet accumulations will range from 3
to 6 inches... with the largest amounts to the northeast toward
Hardy and Batesville. Some light freezing rain accumulations
may also be possible... with up to a tenth of an inch before
precipitation transitions to sleet and snow.

* Timing... this event will unfold today and tonight.

* Impacts... travel issues are expected on area roadways...
especially given well below freezing temperatures tonight.

Precautionary/preparedness actions...

Winter Storm Warning means significant amounts of snow... sleet...
and ice are expected or occurring. Strong winds are also
possible. This will make travel very hazardous or impossible.